Current Conditions - Area Ports

 

CYWH - Victoria Harbour, British Columbia, Canada
Distance from station: WSW 10km
Updated: 12/06/2019 5:00pm
Overcast
Overcast
 Wind from NNE
Wind: NNE 7 km/h
Temperature: 8°C
Wind Chill: 7°C
Dew Point: 6°C
Humidity: 87%
Barometer: 1009.5 hPa
Clouds: Overcast
Visibility: 19 km
Cloud details: Partly cloudy 610 m
Overcast 2134 m
2019/12/07 01:00 CYWH 070100Z 03004KT 12SM SCT020 OVC070 08/06 A2981 RMK SC3AC5 SLP096
KFHR - Friday Harbor, Washington, USA
Distance from station: ENE 19km
Updated: 12/06/2019 5:53pm
Light rain, Overcast
Light rain, Overcast
 Wind from NNE
Wind: NNE 7 km/h
Temperature: 8°C
Wind Chill: 7°C
Dew Point: 7°C
Humidity: 93%
Barometer: 1009.5 hPa
Summary: Light rain
Clouds: Overcast
Visibility: 16 km
Cloud details: Few Clouds 1676 m
Overcast 2438 m
2019/12/07 01:53 KFHR 070153Z AUTO 03004KT 10SM -RA FEW055 OVC080 08/07 A2981 RMK AO2 RAB51 SLP095 P0000 T00830067
 
KORS - Eastsound/Orcas, Washington, USA
Distance from station: NE 38km
Updated: 12/06/2019 5:55pm
Overcast
Overcast
 Wind from calm
Wind: Calm
Temperature: 8°C
Dew Point: 7°C
Humidity: 93%
Barometer: 1009.1 hPa
Clouds: Overcast
Visibility: 16 km
Cloud details: Partly cloudy 2134 m
Mostly cloudy 2286 m
Overcast 2591 m
2019/12/07 01:55 KORS 070155Z AUTO 00000KT 10SM SCT070 BKN075 OVC085 08/07 A2980 RMK AO2
KNUW - Whidbey Is. Nas, Washington, USA
Distance from station: ESE 47km
Updated: 12/06/2019 5:56pm
Overcast
Overcast
 Wind from SSE
Wind: SSE 15 km/h
Temperature: 11°C
Dew Point: 6°C
Humidity: 72%
Barometer: 1010.2 hPa
Clouds: Overcast
Visibility: 16 km
Cloud details: Partly cloudy 1402 m
Mostly cloudy 2591 m
Overcast 3048 m
2019/12/07 01:56 KNUW 070156Z 15008KT 10SM SCT046 BKN085 OVC100 11/06 A2983 RMK AO2 RAE40 SLP102 P0000 T01060056 $
 
CWEZ - Saturna Isl (map, British Columbia, Canada
Distance from station: NNE 40km
Updated: 12/06/2019 5:00pm

 Wind from NNW
Wind: NNW 9 km/h
Temperature: 6°C
Wind Chill: 4°C
Dew Point: 6°C
Humidity: 100%
2019/12/07 01:00 CWEZ 070100Z AUTO 34005KT 06/06 RMK AO1 2PAST HR 8010 SLP094 P0001 T00550059 50002
CYCD - Nanaimo Airport, British Columbia, Canada
Distance from station: NW 80km
Updated: 12/06/2019 5:00pm
Light rain, Mist, Overcast
Light rain, Mist, Overcast
 Wind from calm
Wind: Calm
Temperature: 7°C
Dew Point: 7°C
Humidity: 100%
Barometer: 1009.5 hPa
Summary: Light rain, Mist
Clouds: Overcast
Visibility: 2.4 km
Cloud details: Partly cloudy 91 m
Overcast 183 m
2019/12/07 01:00 CYCD 070100Z 00000KT 1 1/2SM -RA BR SCT003 OVC006 07/07 A2981 RMK SF3SF5 CIG RAG SLP098
 
CWVF - Sand Heads (ls), British Columbia, Canada
Distance from station: N 72km
Updated: 12/06/2019 5:00pm

 Wind from E
Wind: E 6 km/h
Temperature: 6°C
Dew Point: 6°C
Humidity: 100%
2019/12/07 01:00 CWVF 070100Z AUTO 10003KT 06/06 RMK AO1 T00550059
CWQK - Race Rocks Autob, British Columbia, Canada
Distance from station: SW 26km
Updated: 12/06/2019 5:00pm

 Wind from NE
Wind: NE 19 km/h
Temperature: 8°C
Wind Chill: 4°C
Dew Point: 7°C
Humidity: 93%
2019/12/07 01:00 CWQK 070100Z AUTO 05010KT 08/07 RMK AO1 SLP094 T00810067 58011
 
CWSP - Sheringham Autob, British Columbia, Canada
Distance from station: W 49km
Updated: 12/06/2019 5:00pm

 Wind from E
Wind: E 15 km/h
Temperature: 8°C
Wind Chill: 5°C
2019/12/07 01:00 CWSP 070100Z AUTO 10008KT 08/ RMK AO1 4PAST HR 8016 SLP092 P0002 T0080 50004